Portada
METAR-TAF:

METAR-TAF

Aeropuertos :

Guymon, Oklahoma, Estados Unidos

latitud: 36-40-54N, longitud: 101-30-19W, altitud: 952 m

Observación

El informe se hizo hace 28 minutos, a las 01:53 UTC
Viento 6 kt del este-noreste
Temperatura 23°C
Humedad 41%
Presión 1022 hPa
Visibilidad: 16.1 km
Cielo despejado

METAR: KGUY 290153Z AUTO 06006KT 10SM CLR 23/09 A3017 RMK AO2 SLP178 T02330094

Hora: 21:21 (02:21 UTC)

Pronóstico

El informe se hizo hace 3 horas y 1 minutos, a las 23:20 UTC
Pronóstico válido del 29 a las 00 UTC al 29 a las 24 UTC
Viento 8 kt del este-sureste
Visibilidad: 10 km
Cielo nuboso a una altura de 25000 ft
A partir de las 29 a las 1700 UTC
Viento 16 kt del sur con ráfagas de 25 kt
Visibilidad: 10 km
Nubes dispersas a una altura de 25000 ft

TAF: KGUY 282320Z 2900/2924 12008KT P6SM BKN250 FM291700 18016G25KT P6SM SCT250

Observaciones y pronósticos meteorológicos de más de 4000 aeropuertos (mensajes METAR y TAF).

Los puntos amarillos y rojos representan las estaciones disponibles.

Ponga el ratón en el punto deseado para ver el nombre de la estación.

Haga clic para ver las observaciones y los pronósticos meteorológicos.

Para cambiar el mapa : haga clic en los botones verdes con una cruz de color negro para hacer un zoom, en el botón verde con un guión para alejar o en las flechas verdes para mapas adyacentes.


METAR-TAF: